sensor_id;sensor_type;location;lat;lon;timestamp;P1;durP1;ratioP1;P2;durP2;ratioP2
69890;SDS011;57170;43.964;21.262;2024-03-07T00:01:03;50.28;;;34.15;;
69890;SDS011;57170;43.964;21.262;2024-03-07T00:03:29;43.05;;;30.20;;
69890;SDS011;57170;43.964;21.262;2024-03-07T00:05:55;41.47;;;30.90;;
69890;SDS011;57170;43.964;21.262;2024-03-07T00:08:22;44.13;;;32.65;;
69890;SDS011;57170;43.964;21.262;2024-03-07T00:10:48;41.92;;;29.52;;
69890;SDS011;57170;43.964;21.262;2024-03-07T00:13:14;42.60;;;30.88;;
69890;SDS011;57170;43.964;21.262;2024-03-07T00:15:40;46.42;;;29.48;;
69890;SDS011;57170;43.964;21.262;2024-03-07T00:18:07;40.50;;;28.90;;
69890;SDS011;57170;43.964;21.262;2024-03-07T00:20:33;38.90;;;28.25;;
69890;SDS011;57170;43.964;21.262;2024-03-07T00:23:00;39.22;;;29.35;;
69890;SDS011;57170;43.964;21.262;2024-03-07T00:25:28;41.53;;;29.90;;
69890;SDS011;57170;43.964;21.262;2024-03-07T00:27:56;39.00;;;28.80;;
69890;SDS011;57170;43.964;21.262;2024-03-07T00:30:27;44.55;;;28.85;;
69890;SDS011;57170;43.964;21.262;2024-03-07T00:32:54;41.50;;;28.10;;
69890;SDS011;57170;43.964;21.262;2024-03-07T00:35:21;42.03;;;29.08;;
69890;SDS011;57170;43.964;21.262;2024-03-07T00:37:47;44.75;;;27.83;;
69890;SDS011;57170;43.964;21.262;2024-03-07T00:40:14;42.83;;;28.40;;
69890;SDS011;57170;43.964;21.262;2024-03-07T00:42:40;43.50;;;30.25;;
69890;SDS011;57170;43.964;21.262;2024-03-07T00:45:06;65.82;;;43.88;;
69890;SDS011;57170;43.964;21.262;2024-03-07T00:47:32;52.63;;;39.33;;
69890;SDS011;57170;43.964;21.262;2024-03-07T00:49:59;48.78;;;38.63;;
69890;SDS011;57170;43.964;21.262;2024-03-07T00:52:25;59.80;;;41.25;;
69890;SDS011;57170;43.964;21.262;2024-03-07T00:54:51;55.25;;;39.40;;
69890;SDS011;57170;43.964;21.262;2024-03-07T00:57:17;52.38;;;39.33;;
69890;SDS011;57170;43.964;21.262;2024-03-07T00:59:44;56.67;;;39.75;;
69890;SDS011;57170;43.964;21.262;2024-03-07T01:02:10;61.65;;;41.45;;
69890;SDS011;57170;43.964;21.262;2024-03-07T01:04:36;52.30;;;40.25;;
69890;SDS011;57170;43.964;21.262;2024-03-07T01:07:02;61.65;;;42.50;;
69890;SDS011;57170;43.964;21.262;2024-03-07T01:09:29;69.88;;;49.05;;
69890;SDS011;57170;43.964;21.262;2024-03-07T01:11:55;46.78;;;32.72;;
69890;SDS011;57170;43.964;21.262;2024-03-07T01:14:21;45.22;;;31.33;;
69890;SDS011;57170;43.964;21.262;2024-03-07T01:16:48;44.65;;;30.55;;
69890;SDS011;57170;43.964;21.262;2024-03-07T01:19:14;50.47;;;35.40;;
69890;SDS011;57170;43.964;21.262;2024-03-07T01:21:40;58.28;;;39.72;;
69890;SDS011;57170;43.964;21.262;2024-03-07T01:24:06;61.38;;;43.53;;
69890;SDS011;57170;43.964;21.262;2024-03-07T01:26:33;58.53;;;42.53;;
69890;SDS011;57170;43.964;21.262;2024-03-07T01:28:59;54.47;;;43.00;;
69890;SDS011;57170;43.964;21.262;2024-03-07T01:31:25;51.40;;;36.67;;
69890;SDS011;57170;43.964;21.262;2024-03-07T01:33:52;48.25;;;34.92;;
69890;SDS011;57170;43.964;21.262;2024-03-07T01:36:18;47.40;;;34.95;;
69890;SDS011;57170;43.964;21.262;2024-03-07T01:38:45;51.58;;;34.92;;
69890;SDS011;57170;43.964;21.262;2024-03-07T01:41:11;57.15;;;37.03;;
69890;SDS011;57170;43.964;21.262;2024-03-07T01:43:39;45.65;;;33.28;;
69890;SDS011;57170;43.964;21.262;2024-03-07T01:46:05;45.33;;;32.08;;
69890;SDS011;57170;43.964;21.262;2024-03-07T01:48:33;52.38;;;34.42;;
69890;SDS011;57170;43.964;21.262;2024-03-07T01:50:59;54.83;;;34.97;;
69890;SDS011;57170;43.964;21.262;2024-03-07T01:53:28;51.55;;;36.70;;
69890;SDS011;57170;43.964;21.262;2024-03-07T01:55:56;51.33;;;35.10;;
69890;SDS011;57170;43.964;21.262;2024-03-07T01:58:22;49.85;;;35.58;;
69890;SDS011;57170;43.964;21.262;2024-03-07T02:00:49;54.22;;;36.28;;
69890;SDS011;57170;43.964;21.262;2024-03-07T02:03:16;50.10;;;35.30;;
69890;SDS011;57170;43.964;21.262;2024-03-07T02:05:42;49.67;;;36.30;;
69890;SDS011;57170;43.964;21.262;2024-03-07T02:08:09;53.78;;;37.40;;
69890;SDS011;57170;43.964;21.262;2024-03-07T02:10:35;49.20;;;35.67;;
69890;SDS011;57170;43.964;21.262;2024-03-07T02:13:01;48.55;;;33.45;;
69890;SDS011;57170;43.964;21.262;2024-03-07T02:15:27;51.75;;;35.05;;
69890;SDS011;57170;43.964;21.262;2024-03-07T02:17:54;55.70;;;34.95;;
69890;SDS011;57170;43.964;21.262;2024-03-07T02:20:20;52.15;;;34.45;;
69890;SDS011;57170;43.964;21.262;2024-03-07T02:22:47;47.75;;;35.45;;
69890;SDS011;57170;43.964;21.262;2024-03-07T02:25:13;50.00;;;32.92;;
69890;SDS011;57170;43.964;21.262;2024-03-07T02:27:40;53.38;;;34.65;;
69890;SDS011;57170;43.964;21.262;2024-03-07T02:30:07;48.15;;;34.05;;
69890;SDS011;57170;43.964;21.262;2024-03-07T02:32:36;41.75;;;30.33;;
69890;SDS011;57170;43.964;21.262;2024-03-07T02:35:05;41.65;;;28.45;;
69890;SDS011;57170;43.964;21.262;2024-03-07T02:37:32;37.95;;;27.83;;
69890;SDS011;57170;43.964;21.262;2024-03-07T02:39:58;40.92;;;28.83;;
69890;SDS011;57170;43.964;21.262;2024-03-07T02:42:24;43.85;;;31.23;;
69890;SDS011;57170;43.964;21.262;2024-03-07T02:44:50;43.95;;;29.65;;
69890;SDS011;57170;43.964;21.262;2024-03-07T02:47:18;43.97;;;31.08;;
69890;SDS011;57170;43.964;21.262;2024-03-07T02:49:44;43.22;;;28.75;;
69890;SDS011;57170;43.964;21.262;2024-03-07T02:52:10;46.05;;;29.98;;
69890;SDS011;57170;43.964;21.262;2024-03-07T02:54:36;44.13;;;30.40;;
69890;SDS011;57170;43.964;21.262;2024-03-07T02:57:02;43.85;;;28.98;;
69890;SDS011;57170;43.964;21.262;2024-03-07T02:59:28;42.65;;;31.40;;
69890;SDS011;57170;43.964;21.262;2024-03-07T03:01:54;42.15;;;29.98;;
69890;SDS011;57170;43.964;21.262;2024-03-07T03:04:20;40.63;;;30.25;;
69890;SDS011;57170;43.964;21.262;2024-03-07T03:06:46;49.60;;;31.00;;
69890;SDS011;57170;43.964;21.262;2024-03-07T03:09:13;42.20;;;29.05;;
69890;SDS011;57170;43.964;21.262;2024-03-07T03:11:43;35.92;;;27.50;;
69890;SDS011;57170;43.964;21.262;2024-03-07T03:14:09;41.42;;;27.55;;
69890;SDS011;57170;43.964;21.262;2024-03-07T03:16:42;38.83;;;28.52;;
69890;SDS011;57170;43.964;21.262;2024-03-07T03:19:09;39.25;;;28.90;;
69890;SDS011;57170;43.964;21.262;2024-03-07T03:21:35;39.65;;;28.98;;
69890;SDS011;57170;43.964;21.262;2024-03-07T03:24:01;39.45;;;28.55;;
69890;SDS011;57170;43.964;21.262;2024-03-07T03:26:28;32.60;;;25.02;;
69890;SDS011;57170;43.964;21.262;2024-03-07T03:28:56;39.88;;;27.52;;
69890;SDS011;57170;43.964;21.262;2024-03-07T03:31:22;38.22;;;27.00;;
69890;SDS011;57170;43.964;21.262;2024-03-07T03:33:49;33.33;;;25.42;;
69890;SDS011;57170;43.964;21.262;2024-03-07T03:36:16;35.83;;;25.48;;
69890;SDS011;57170;43.964;21.262;2024-03-07T03:38:42;29.42;;;20.98;;
69890;SDS011;57170;43.964;21.262;2024-03-07T03:41:08;31.05;;;20.30;;
69890;SDS011;57170;43.964;21.262;2024-03-07T03:43:34;32.33;;;22.65;;
69890;SDS011;57170;43.964;21.262;2024-03-07T03:46:00;27.85;;;21.05;;
69890;SDS011;57170;43.964;21.262;2024-03-07T03:48:27;28.08;;;22.20;;
69890;SDS011;57170;43.964;21.262;2024-03-07T03:50:53;26.75;;;19.52;;
69890;SDS011;57170;43.964;21.262;2024-03-07T03:53:19;24.25;;;18.25;;
69890;SDS011;57170;43.964;21.262;2024-03-07T03:55:45;28.83;;;19.20;;
69890;SDS011;57170;43.964;21.262;2024-03-07T03:58:11;24.67;;;18.73;;
69890;SDS011;57170;43.964;21.262;2024-03-07T04:00:37;22.77;;;17.00;;
69890;SDS011;57170;43.964;21.262;2024-03-07T04:03:04;20.70;;;17.67;;
69890;SDS011;57170;43.964;21.262;2024-03-07T04:05:31;23.77;;;17.95;;
69890;SDS011;57170;43.964;21.262;2024-03-07T04:07:58;22.60;;;17.63;;
69890;SDS011;57170;43.964;21.262;2024-03-07T04:10:24;21.73;;;17.90;;
69890;SDS011;57170;43.964;21.262;2024-03-07T04:12:50;22.30;;;17.17;;
69890;SDS011;57170;43.964;21.262;2024-03-07T04:15:16;20.95;;;16.73;;
69890;SDS011;57170;43.964;21.262;2024-03-07T04:17:42;20.95;;;16.15;;
69890;SDS011;57170;43.964;21.262;2024-03-07T04:20:10;18.73;;;14.50;;
69890;SDS011;57170;43.964;21.262;2024-03-07T04:22:36;19.17;;;14.38;;
69890;SDS011;57170;43.964;21.262;2024-03-07T04:25:04;17.25;;;13.73;;
69890;SDS011;57170;43.964;21.262;2024-03-07T04:27:32;18.25;;;14.10;;
69890;SDS011;57170;43.964;21.262;2024-03-07T04:29:59;16.80;;;13.35;;
69890;SDS011;57170;43.964;21.262;2024-03-07T04:32:28;20.73;;;15.65;;
69890;SDS011;57170;43.964;21.262;2024-03-07T04:34:54;20.08;;;14.95;;
69890;SDS011;57170;43.964;21.262;2024-03-07T04:37:24;19.38;;;15.18;;
69890;SDS011;57170;43.964;21.262;2024-03-07T04:39:50;18.08;;;13.95;;
69890;SDS011;57170;43.964;21.262;2024-03-07T04:42:16;15.10;;;13.45;;
69890;SDS011;57170;43.964;21.262;2024-03-07T04:44:42;17.60;;;14.63;;
69890;SDS011;57170;43.964;21.262;2024-03-07T04:47:08;16.65;;;13.68;;
69890;SDS011;57170;43.964;21.262;2024-03-07T04:49:34;13.77;;;10.73;;
69890;SDS011;57170;43.964;21.262;2024-03-07T04:52:01;14.10;;;10.38;;
69890;SDS011;57170;43.964;21.262;2024-03-07T04:54:27;10.60;;;7.97;;
69890;SDS011;57170;43.964;21.262;2024-03-07T04:56:54;10.57;;;9.25;;
69890;SDS011;57170;43.964;21.262;2024-03-07T04:59:20;8.75;;;7.50;;
69890;SDS011;57170;43.964;21.262;2024-03-07T05:01:47;7.60;;;6.80;;
69890;SDS011;57170;43.964;21.262;2024-03-07T05:04:13;10.05;;;7.07;;
69890;SDS011;57170;43.964;21.262;2024-03-07T05:06:40;8.70;;;6.63;;
69890;SDS011;57170;43.964;21.262;2024-03-07T05:09:07;10.63;;;7.47;;
69890;SDS011;57170;43.964;21.262;2024-03-07T05:11:34;10.52;;;5.97;;
69890;SDS011;57170;43.964;21.262;2024-03-07T05:14:00;7.78;;;6.28;;
69890;SDS011;57170;43.964;21.262;2024-03-07T05:16:27;10.10;;;6.75;;
69890;SDS011;57170;43.964;21.262;2024-03-07T05:18:53;9.23;;;6.72;;
69890;SDS011;57170;43.964;21.262;2024-03-07T05:21:23;8.35;;;6.22;;
69890;SDS011;57170;43.964;21.262;2024-03-07T05:23:58;13.95;;;6.80;;
69890;SDS011;57170;43.964;21.262;2024-03-07T05:26:25;8.30;;;6.50;;
69890;SDS011;57170;43.964;21.262;2024-03-07T05:28:55;7.22;;;6.38;;
69890;SDS011;57170;43.964;21.262;2024-03-07T05:31:21;7.82;;;6.70;;
69890;SDS011;57170;43.964;21.262;2024-03-07T05:33:47;9.77;;;7.15;;
69890;SDS011;57170;43.964;21.262;2024-03-07T05:36:13;10.70;;;7.13;;
69890;SDS011;57170;43.964;21.262;2024-03-07T05:38:42;13.73;;;7.55;;
69890;SDS011;57170;43.964;21.262;2024-03-07T05:41:09;12.60;;;8.43;;
69890;SDS011;57170;43.964;21.262;2024-03-07T05:43:36;11.88;;;8.55;;
69890;SDS011;57170;43.964;21.262;2024-03-07T05:46:02;9.80;;;7.40;;
69890;SDS011;57170;43.964;21.262;2024-03-07T05:48:30;8.70;;;6.72;;
69890;SDS011;57170;43.964;21.262;2024-03-07T05:50:57;7.65;;;6.43;;
69890;SDS011;57170;43.964;21.262;2024-03-07T05:53:24;7.30;;;5.82;;
69890;SDS011;57170;43.964;21.262;2024-03-07T05:55:50;7.80;;;6.50;;
69890;SDS011;57170;43.964;21.262;2024-03-07T05:58:17;9.05;;;6.70;;
69890;SDS011;57170;43.964;21.262;2024-03-07T06:00:44;8.20;;;6.47;;
69890;SDS011;57170;43.964;21.262;2024-03-07T06:03:17;10.65;;;6.97;;
69890;SDS011;57170;43.964;21.262;2024-03-07T06:05:47;7.03;;;5.32;;
69890;SDS011;57170;43.964;21.262;2024-03-07T06:08:16;8.50;;;6.47;;
69890;SDS011;57170;43.964;21.262;2024-03-07T06:10:46;8.98;;;6.47;;
69890;SDS011;57170;43.964;21.262;2024-03-07T06:13:13;6.88;;;5.78;;
69890;SDS011;57170;43.964;21.262;2024-03-07T06:15:39;8.45;;;6.32;;
69890;SDS011;57170;43.964;21.262;2024-03-07T06:18:06;7.82;;;6.03;;
69890;SDS011;57170;43.964;21.262;2024-03-07T06:20:44;6.70;;;5.28;;
69890;SDS011;57170;43.964;21.262;2024-03-07T06:23:11;5.65;;;4.82;;
69890;SDS011;57170;43.964;21.262;2024-03-07T06:25:37;9.27;;;5.72;;
69890;SDS011;57170;43.964;21.262;2024-03-07T06:28:15;7.57;;;5.38;;
69890;SDS011;57170;43.964;21.262;2024-03-07T06:30:45;6.45;;;5.13;;
69890;SDS011;57170;43.964;21.262;2024-03-07T06:33:12;9.00;;;5.43;;
69890;SDS011;57170;43.964;21.262;2024-03-07T06:35:38;7.10;;;5.07;;
69890;SDS011;57170;43.964;21.262;2024-03-07T06:38:08;7.65;;;5.55;;
69890;SDS011;57170;43.964;21.262;2024-03-07T06:40:35;7.38;;;5.70;;
69890;SDS011;57170;43.964;21.262;2024-03-07T06:43:02;6.55;;;5.10;;
69890;SDS011;57170;43.964;21.262;2024-03-07T06:45:37;8.52;;;6.32;;
69890;SDS011;57170;43.964;21.262;2024-03-07T06:48:07;6.28;;;5.25;;
69890;SDS011;57170;43.964;21.262;2024-03-07T06:50:33;8.25;;;5.95;;
69890;SDS011;57170;43.964;21.262;2024-03-07T06:53:00;6.88;;;5.53;;
69890;SDS011;57170;43.964;21.262;2024-03-07T06:55:26;6.90;;;4.75;;
69890;SDS011;57170;43.964;21.262;2024-03-07T06:57:53;7.22;;;5.60;;
69890;SDS011;57170;43.964;21.262;2024-03-07T07:00:19;6.97;;;5.43;;
69890;SDS011;57170;43.964;21.262;2024-03-07T07:02:46;7.20;;;5.65;;
69890;SDS011;57170;43.964;21.262;2024-03-07T07:05:12;7.05;;;6.28;;
69890;SDS011;57170;43.964;21.262;2024-03-07T07:07:58;9.88;;;7.47;;
69890;SDS011;57170;43.964;21.262;2024-03-07T07:10:24;10.80;;;7.60;;
69890;SDS011;57170;43.964;21.262;2024-03-07T07:12:51;11.77;;;8.13;;
69890;SDS011;57170;43.964;21.262;2024-03-07T07:15:19;9.60;;;7.32;;
69890;SDS011;57170;43.964;21.262;2024-03-07T07:17:45;7.55;;;6.18;;
69890;SDS011;57170;43.964;21.262;2024-03-07T07:20:13;11.95;;;7.95;;
69890;SDS011;57170;43.964;21.262;2024-03-07T07:22:44;9.30;;;7.43;;
69890;SDS011;57170;43.964;21.262;2024-03-07T07:27:49;10.10;;;7.65;;
69890;SDS011;57170;43.964;21.262;2024-03-07T07:30:16;10.43;;;7.70;;
69890;SDS011;57170;43.964;21.262;2024-03-07T07:32:43;12.00;;;7.32;;
69890;SDS011;57170;43.964;21.262;2024-03-07T07:35:10;11.50;;;7.00;;
69890;SDS011;57170;43.964;21.262;2024-03-07T07:37:43;10.85;;;7.85;;
69890;SDS011;57170;43.964;21.262;2024-03-07T07:40:10;10.13;;;8.38;;
69890;SDS011;57170;43.964;21.262;2024-03-07T07:42:39;15.27;;;11.10;;
69890;SDS011;57170;43.964;21.262;2024-03-07T07:45:07;14.35;;;10.02;;
69890;SDS011;57170;43.964;21.262;2024-03-07T07:47:40;10.75;;;8.20;;
69890;SDS011;57170;43.964;21.262;2024-03-07T07:50:10;10.87;;;8.37;;
69890;SDS011;57170;43.964;21.262;2024-03-07T07:52:42;10.82;;;7.82;;
69890;SDS011;57170;43.964;21.262;2024-03-07T07:55:08;10.43;;;8.48;;
69890;SDS011;57170;43.964;21.262;2024-03-07T07:57:42;9.93;;;7.38;;
69890;SDS011;57170;43.964;21.262;2024-03-07T08:00:10;9.02;;;6.40;;
69890;SDS011;57170;43.964;21.262;2024-03-07T08:02:37;11.57;;;8.00;;
69890;SDS011;57170;43.964;21.262;2024-03-07T08:05:03;15.48;;;6.88;;
69890;SDS011;57170;43.964;21.262;2024-03-07T08:07:30;9.90;;;6.25;;
69890;SDS011;57170;43.964;21.262;2024-03-07T08:09:56;9.85;;;6.78;;
69890;SDS011;57170;43.964;21.262;2024-03-07T08:12:23;12.10;;;9.10;;
69890;SDS011;57170;43.964;21.262;2024-03-07T08:14:49;9.48;;;7.30;;
69890;SDS011;57170;43.964;21.262;2024-03-07T08:17:15;7.90;;;6.50;;
69890;SDS011;57170;43.964;21.262;2024-03-07T08:19:42;7.82;;;6.00;;
69890;SDS011;57170;43.964;21.262;2024-03-07T08:22:08;7.55;;;5.68;;
69890;SDS011;57170;43.964;21.262;2024-03-07T08:24:35;7.75;;;6.13;;
69890;SDS011;57170;43.964;21.262;2024-03-07T08:27:01;8.27;;;5.97;;
69890;SDS011;57170;43.964;21.262;2024-03-07T08:29:27;7.18;;;5.03;;
69890;SDS011;57170;43.964;21.262;2024-03-07T08:31:53;5.45;;;3.97;;
69890;SDS011;57170;43.964;21.262;2024-03-07T08:34:19;5.97;;;4.40;;
69890;SDS011;57170;43.964;21.262;2024-03-07T08:36:45;6.45;;;4.18;;
69890;SDS011;57170;43.964;21.262;2024-03-07T08:39:12;7.03;;;4.80;;
69890;SDS011;57170;43.964;21.262;2024-03-07T08:41:39;5.03;;;4.20;;
69890;SDS011;57170;43.964;21.262;2024-03-07T08:44:07;6.40;;;3.80;;
69890;SDS011;57170;43.964;21.262;2024-03-07T08:46:34;7.78;;;4.47;;
69890;SDS011;57170;43.964;21.262;2024-03-07T08:49:01;5.30;;;3.15;;
69890;SDS011;57170;43.964;21.262;2024-03-07T08:51:27;5.78;;;4.03;;
69890;SDS011;57170;43.964;21.262;2024-03-07T08:53:53;6.50;;;3.55;;
69890;SDS011;57170;43.964;21.262;2024-03-07T08:56:19;5.55;;;3.05;;
69890;SDS011;57170;43.964;21.262;2024-03-07T08:58:45;5.28;;;3.22;;
69890;SDS011;57170;43.964;21.262;2024-03-07T09:01:12;4.93;;;3.97;;
69890;SDS011;57170;43.964;21.262;2024-03-07T09:03:38;4.10;;;2.88;;
69890;SDS011;57170;43.964;21.262;2024-03-07T09:06:04;5.50;;;3.22;;
69890;SDS011;57170;43.964;21.262;2024-03-07T09:08:30;4.53;;;2.83;;
69890;SDS011;57170;43.964;21.262;2024-03-07T09:10:56;6.20;;;3.33;;
69890;SDS011;57170;43.964;21.262;2024-03-07T09:13:23;6.70;;;2.95;;
69890;SDS011;57170;43.964;21.262;2024-03-07T09:15:49;5.13;;;3.38;;
69890;SDS011;57170;43.964;21.262;2024-03-07T09:18:15;5.13;;;2.88;;
69890;SDS011;57170;43.964;21.262;2024-03-07T09:20:41;6.47;;;2.75;;
69890;SDS011;57170;43.964;21.262;2024-03-07T09:23:07;4.15;;;2.67;;
69890;SDS011;57170;43.964;21.262;2024-03-07T09:25:33;4.15;;;2.55;;
69890;SDS011;57170;43.964;21.262;2024-03-07T09:28:00;6.72;;;3.08;;
69890;SDS011;57170;43.964;21.262;2024-03-07T09:30:26;4.45;;;3.30;;
69890;SDS011;57170;43.964;21.262;2024-03-07T09:32:56;5.97;;;3.50;;
69890;SDS011;57170;43.964;21.262;2024-03-07T09:35:22;4.72;;;2.92;;
69890;SDS011;57170;43.964;21.262;2024-03-07T09:37:48;4.05;;;2.83;;
69890;SDS011;57170;43.964;21.262;2024-03-07T09:40:14;5.15;;;3.80;;
69890;SDS011;57170;43.964;21.262;2024-03-07T09:42:44;5.32;;;3.05;;
69890;SDS011;57170;43.964;21.262;2024-03-07T09:45:20;5.22;;;3.70;;
69890;SDS011;57170;43.964;21.262;2024-03-07T09:47:49;6.93;;;4.10;;
69890;SDS011;57170;43.964;21.262;2024-03-07T09:50:17;5.90;;;4.35;;
69890;SDS011;57170;43.964;21.262;2024-03-07T09:52:49;6.63;;;4.80;;
69890;SDS011;57170;43.964;21.262;2024-03-07T09:55:17;7.30;;;4.43;;
69890;SDS011;57170;43.964;21.262;2024-03-07T09:57:44;6.15;;;4.38;;
69890;SDS011;57170;43.964;21.262;2024-03-07T10:00:11;4.68;;;3.95;;
69890;SDS011;57170;43.964;21.262;2024-03-07T10:02:47;5.85;;;4.18;;
69890;SDS011;57170;43.964;21.262;2024-03-07T10:05:14;7.38;;;5.28;;
69890;SDS011;57170;43.964;21.262;2024-03-07T10:07:42;6.78;;;5.07;;
69890;SDS011;57170;43.964;21.262;2024-03-07T10:10:08;8.52;;;6.03;;
69890;SDS011;57170;43.964;21.262;2024-03-07T10:12:37;5.97;;;4.55;;
69890;SDS011;57170;43.964;21.262;2024-03-07T10:15:03;5.20;;;4.07;;
69890;SDS011;57170;43.964;21.262;2024-03-07T10:17:38;4.35;;;3.28;;
69890;SDS011;57170;43.964;21.262;2024-03-07T10:20:08;7.40;;;3.65;;
69890;SDS011;57170;43.964;21.262;2024-03-07T10:22:35;6.47;;;3.80;;
69890;SDS011;57170;43.964;21.262;2024-03-07T10:25:02;4.95;;;3.55;;
69890;SDS011;57170;43.964;21.262;2024-03-07T10:27:29;5.97;;;4.22;;
69890;SDS011;57170;43.964;21.262;2024-03-07T10:29:55;6.53;;;3.90;;
69890;SDS011;57170;43.964;21.262;2024-03-07T10:32:22;4.38;;;3.05;;
69890;SDS011;57170;43.964;21.262;2024-03-07T10:34:51;4.65;;;3.47;;
69890;SDS011;57170;43.964;21.262;2024-03-07T10:37:17;6.30;;;3.25;;
69890;SDS011;57170;43.964;21.262;2024-03-07T10:39:49;4.50;;;3.33;;
69890;SDS011;57170;43.964;21.262;2024-03-07T10:42:16;7.65;;;3.63;;
69890;SDS011;57170;43.964;21.262;2024-03-07T10:44:44;4.55;;;3.38;;
69890;SDS011;57170;43.964;21.262;2024-03-07T10:47:19;4.80;;;3.67;;
69890;SDS011;57170;43.964;21.262;2024-03-07T10:52:34;4.05;;;3.20;;
69890;SDS011;57170;43.964;21.262;2024-03-07T10:58:09;5.28;;;2.97;;
69890;SDS011;57170;43.964;21.262;2024-03-07T11:00:26;4.28;;;3.22;;
69890;SDS011;57170;43.964;21.262;2024-03-07T11:03:00;3.95;;;3.28;;
69890;SDS011;57170;43.964;21.262;2024-03-07T11:05:32;6.40;;;3.67;;
69890;SDS011;57170;43.964;21.262;2024-03-07T11:07:58;5.00;;;3.92;;
69890;SDS011;57170;43.964;21.262;2024-03-07T11:10:29;4.72;;;3.40;;
69890;SDS011;57170;43.964;21.262;2024-03-07T11:12:56;5.60;;;4.38;;
69890;SDS011;57170;43.964;21.262;2024-03-07T11:15:23;6.47;;;4.22;;
69890;SDS011;57170;43.964;21.262;2024-03-07T11:17:51;5.97;;;4.57;;
69890;SDS011;57170;43.964;21.262;2024-03-07T11:22:46;5.18;;;4.00;;
69890;SDS011;57170;43.964;21.262;2024-03-07T11:25:12;4.85;;;2.97;;
69890;SDS011;57170;43.964;21.262;2024-03-07T11:27:38;5.22;;;3.88;;
69890;SDS011;57170;43.964;21.262;2024-03-07T11:30:07;5.88;;;4.18;;
69890;SDS011;57170;43.964;21.262;2024-03-07T11:32:34;5.68;;;4.13;;
69890;SDS011;57170;43.964;21.262;2024-03-07T11:35:13;5.47;;;4.10;;
69890;SDS011;57170;43.964;21.262;2024-03-07T11:37:40;5.43;;;4.28;;
69890;SDS011;57170;43.964;21.262;2024-03-07T11:40:58;5.65;;;4.30;;
69890;SDS011;57170;43.964;21.262;2024-03-07T11:43:03;6.75;;;4.43;;
69890;SDS011;57170;43.964;21.262;2024-03-07T11:45:30;6.15;;;4.80;;
69890;SDS011;57170;43.964;21.262;2024-03-07T11:48:03;6.32;;;4.60;;
69890;SDS011;57170;43.964;21.262;2024-03-07T11:50:34;7.30;;;4.72;;
69890;SDS011;57170;43.964;21.262;2024-03-07T11:53:01;6.57;;;5.15;;
69890;SDS011;57170;43.964;21.262;2024-03-07T11:55:27;7.97;;;5.65;;
69890;SDS011;57170;43.964;21.262;2024-03-07T11:57:53;6.20;;;4.72;;
69890;SDS011;57170;43.964;21.262;2024-03-07T12:00:20;6.07;;;4.75;;
69890;SDS011;57170;43.964;21.262;2024-03-07T12:02:49;6.63;;;4.70;;
69890;SDS011;57170;43.964;21.262;2024-03-07T12:05:15;6.13;;;4.47;;
69890;SDS011;57170;43.964;21.262;2024-03-07T12:07:42;6.30;;;4.55;;
69890;SDS011;57170;43.964;21.262;2024-03-07T12:10:08;5.35;;;4.45;;
69890;SDS011;57170;43.964;21.262;2024-03-07T12:12:35;5.40;;;4.43;;
69890;SDS011;57170;43.964;21.262;2024-03-07T12:15:05;4.82;;;3.83;;
69890;SDS011;57170;43.964;21.262;2024-03-07T12:17:34;5.97;;;4.30;;
69890;SDS011;57170;43.964;21.262;2024-03-07T12:20:01;6.30;;;4.80;;
69890;SDS011;57170;43.964;21.262;2024-03-07T12:22:47;6.70;;;4.88;;
69890;SDS011;57170;43.964;21.262;2024-03-07T12:25:17;4.93;;;3.67;;
69890;SDS011;57170;43.964;21.262;2024-03-07T12:30:16;7.38;;;3.85;;
69890;SDS011;57170;43.964;21.262;2024-03-07T12:32:50;5.97;;;4.28;;
69890;SDS011;57170;43.964;21.262;2024-03-07T12:35:17;8.90;;;4.68;;
69890;SDS011;57170;43.964;21.262;2024-03-07T12:37:44;8.43;;;4.35;;
69890;SDS011;57170;43.964;21.262;2024-03-07T12:40:12;6.53;;;4.07;;
69890;SDS011;57170;43.964;21.262;2024-03-07T12:42:47;4.65;;;3.75;;
69890;SDS011;57170;43.964;21.262;2024-03-07T12:45:13;6.68;;;3.95;;
69890;SDS011;57170;43.964;21.262;2024-03-07T12:47:43;5.05;;;3.63;;
69890;SDS011;57170;43.964;21.262;2024-03-07T12:50:09;5.90;;;3.88;;
69890;SDS011;57170;43.964;21.262;2024-03-07T12:52:38;5.97;;;4.13;;
69890;SDS011;57170;43.964;21.262;2024-03-07T12:55:05;6.53;;;4.22;;
69890;SDS011;57170;43.964;21.262;2024-03-07T12:57:32;5.60;;;3.88;;
69890;SDS011;57170;43.964;21.262;2024-03-07T12:59:58;7.75;;;4.80;;
69890;SDS011;57170;43.964;21.262;2024-03-07T13:02:24;4.40;;;3.83;;
69890;SDS011;57170;43.964;21.262;2024-03-07T13:04:54;4.35;;;3.63;;
69890;SDS011;57170;43.964;21.262;2024-03-07T13:07:21;5.28;;;3.70;;
69890;SDS011;57170;43.964;21.262;2024-03-07T13:09:48;6.90;;;4.30;;
69890;SDS011;57170;43.964;21.262;2024-03-07T13:12:14;5.25;;;4.03;;
69890;SDS011;57170;43.964;21.262;2024-03-07T13:14:40;5.38;;;3.70;;
69890;SDS011;57170;43.964;21.262;2024-03-07T13:17:09;5.63;;;4.13;;
69890;SDS011;57170;43.964;21.262;2024-03-07T13:19:39;5.65;;;4.15;;
69890;SDS011;57170;43.964;21.262;2024-03-07T13:22:08;6.72;;;4.70;;
69890;SDS011;57170;43.964;21.262;2024-03-07T13:24:37;5.78;;;4.07;;
69890;SDS011;57170;43.964;21.262;2024-03-07T13:27:04;6.70;;;4.85;;
69890;SDS011;57170;43.964;21.262;2024-03-07T13:29:36;5.97;;;4.63;;
69890;SDS011;57170;43.964;21.262;2024-03-07T13:32:02;6.22;;;4.22;;
69890;SDS011;57170;43.964;21.262;2024-03-07T13:34:29;6.30;;;5.03;;
69890;SDS011;57170;43.964;21.262;2024-03-07T13:36:55;6.90;;;5.38;;
69890;SDS011;57170;43.964;21.262;2024-03-07T13:39:23;6.13;;;5.05;;
69890;SDS011;57170;43.964;21.262;2024-03-07T13:41:49;7.20;;;5.60;;
69890;SDS011;57170;43.964;21.262;2024-03-07T13:44:16;9.77;;;6.28;;
69890;SDS011;57170;43.964;21.262;2024-03-07T13:46:44;8.68;;;5.93;;
69890;SDS011;57170;43.964;21.262;2024-03-07T13:49:10;8.00;;;5.82;;
69890;SDS011;57170;43.964;21.262;2024-03-07T13:51:40;6.85;;;6.15;;
69890;SDS011;57170;43.964;21.262;2024-03-07T13:54:19;8.50;;;6.82;;
69890;SDS011;57170;43.964;21.262;2024-03-07T14:02:30;8.02;;;6.70;;
69890;SDS011;57170;43.964;21.262;2024-03-07T14:21:15;12.85;;;9.93;;
69890;SDS011;57170;43.964;21.262;2024-03-07T14:31:57;12.75;;;9.07;;
69890;SDS011;57170;43.964;21.262;2024-03-07T14:37:11;9.48;;;8.35;;
69890;SDS011;57170;43.964;21.262;2024-03-07T14:39:43;10.50;;;8.60;;
69890;SDS011;57170;43.964;21.262;2024-03-07T14:42:09;12.70;;;9.02;;
69890;SDS011;57170;43.964;21.262;2024-03-07T14:44:38;10.93;;;9.02;;
69890;SDS011;57170;43.964;21.262;2024-03-07T14:47:05;11.35;;;8.93;;
69890;SDS011;57170;43.964;21.262;2024-03-07T14:49:32;13.27;;;10.07;;
69890;SDS011;57170;43.964;21.262;2024-03-07T14:51:58;12.07;;;9.90;;
69890;SDS011;57170;43.964;21.262;2024-03-07T14:54:24;13.73;;;9.93;;
69890;SDS011;57170;43.964;21.262;2024-03-07T14:56:51;13.93;;;10.20;;
69890;SDS011;57170;43.964;21.262;2024-03-07T14:59:17;14.38;;;11.43;;
69890;SDS011;57170;43.964;21.262;2024-03-07T15:01:44;13.45;;;11.02;;
69890;SDS011;57170;43.964;21.262;2024-03-07T15:04:11;13.77;;;10.23;;
69890;SDS011;57170;43.964;21.262;2024-03-07T15:06:41;13.35;;;11.30;;
69890;SDS011;57170;43.964;21.262;2024-03-07T15:09:09;16.20;;;11.25;;
69890;SDS011;57170;43.964;21.262;2024-03-07T15:11:35;12.38;;;9.55;;